createdAt,value
2019-05-17T00:29:39.678Z,84.40
2019-05-17T00:59:47.365Z,83.20
2019-05-17T01:30:02.651Z,84.70
2019-05-17T02:00:09.659Z,84.50
2019-05-17T02:30:14.467Z,84.90
2019-05-17T03:00:17.222Z,86.60
2019-05-17T03:30:25.248Z,85.30
2019-05-17T04:00:24.694Z,87.70
2019-05-17T04:30:27.304Z,87.50
2019-05-17T05:00:29.929Z,87.80
2019-05-17T05:30:32.534Z,89.80
2019-05-17T06:00:35.246Z,90.70
2019-05-17T06:30:42.706Z,89.20
2019-05-17T07:00:46.938Z,86.80
2019-05-17T07:30:50.389Z,82.80
2019-05-17T08:00:53.132Z,80.80
2019-05-17T08:30:55.750Z,77.20
2019-05-17T09:01:01.011Z,73.10
2019-05-17T09:31:03.637Z,71.10
2019-05-17T10:01:06.261Z,68.70
2019-05-17T10:31:11.310Z,65.20
2019-05-17T11:01:14.241Z,62.00
2019-05-17T11:31:16.865Z,62.10
2019-05-17T12:01:19.481Z,58.60
2019-05-17T12:31:22.093Z,60.40
2019-05-17T13:01:24.719Z,59.20
2019-05-17T13:31:27.354Z,58.60
2019-05-17T14:01:29.966Z,56.30
2019-05-17T14:31:32.770Z,56.40
2019-05-17T15:01:38.304Z,54.10
2019-05-17T15:31:40.947Z,49.60
2019-05-17T16:01:43.580Z,48.20
2019-05-17T16:31:49.306Z,49.10
2019-05-17T17:01:51.998Z,49.60
2019-05-17T17:31:54.630Z,49.50
2019-05-17T18:01:58.042Z,52.30
2019-05-17T18:32:00.792Z,56.30
2019-05-17T19:02:05.589Z,58.70
2019-05-17T19:32:08.274Z,62.60
2019-05-17T20:02:12.132Z,65.00
2019-05-17T20:32:15.000Z,65.20
2019-05-17T21:02:17.622Z,66.80
2019-05-17T21:32:20.305Z,69.00
2019-05-17T22:02:23.041Z,72.60
2019-05-17T22:32:25.624Z,73.20
2019-05-17T23:02:30.319Z,71.10
2019-05-17T23:32:32.928Z,72.70
